sensor_id;sensor_type;location;lat;lon;timestamp;temperature;humidity
569;DHT22;269;48.884;9.192;2023-03-19T00:00:04;12.70;96.60
569;DHT22;269;48.884;9.192;2023-03-19T00:02:33;12.80;96.20
569;DHT22;269;48.884;9.192;2023-03-19T00:05:00;12.80;96.40
569;DHT22;269;48.884;9.192;2023-03-19T00:07:46;12.80;96.70
569;DHT22;269;48.884;9.192;2023-03-19T00:10:14;12.80;96.80
569;DHT22;269;48.884;9.192;2023-03-19T00:12:41;12.70;97.00
569;DHT22;269;48.884;9.192;2023-03-19T00:15:09;12.70;96.70
569;DHT22;269;48.884;9.192;2023-03-19T00:17:39;12.70;96.30
569;DHT22;269;48.884;9.192;2023-03-19T00:20:08;12.70;96.50
569;DHT22;269;48.884;9.192;2023-03-19T00:22:35;12.70;96.80
569;DHT22;269;48.884;9.192;2023-03-19T00:25:03;12.70;97.00
569;DHT22;269;48.884;9.192;2023-03-19T00:27:31;12.60;97.00
569;DHT22;269;48.884;9.192;2023-03-19T00:30:17;12.50;97.30
569;DHT22;269;48.884;9.192;2023-03-19T00:32:44;12.50;97.60
569;DHT22;269;48.884;9.192;2023-03-19T00:35:12;12.40;97.90
569;DHT22;269;48.884;9.192;2023-03-19T00:37:39;12.30;98.30
569;DHT22;269;48.884;9.192;2023-03-19T00:40:08;12.20;98.40
569;DHT22;269;48.884;9.192;2023-03-19T00:42:36;12.20;98.70
569;DHT22;269;48.884;9.192;2023-03-19T00:45:04;12.20;98.90
569;DHT22;269;48.884;9.192;2023-03-19T00:47:31;12.10;99.00
569;DHT22;269;48.884;9.192;2023-03-19T00:49:58;12.10;99.10
569;DHT22;269;48.884;9.192;2023-03-19T00:52:25;11.90;99.40
569;DHT22;269;48.884;9.192;2023-03-19T00:54:52;11.90;99.50
569;DHT22;269;48.884;9.192;2023-03-19T00:57:20;11.80;99.70
569;DHT22;269;48.884;9.192;2023-03-19T00:59:49;11.70;99.90
569;DHT22;269;48.884;9.192;2023-03-19T01:02:16;11.70;99.90
569;DHT22;269;48.884;9.192;2023-03-19T01:04:43;11.60;99.90
569;DHT22;269;48.884;9.192;2023-03-19T01:07:10;11.60;99.90
569;DHT22;269;48.884;9.192;2023-03-19T01:09:37;11.40;99.90
569;DHT22;269;48.884;9.192;2023-03-19T01:12:04;11.40;99.90
569;DHT22;269;48.884;9.192;2023-03-19T01:14:32;11.30;99.90
569;DHT22;269;48.884;9.192;2023-03-19T01:17:00;11.10;99.90
569;DHT22;269;48.884;9.192;2023-03-19T01:19:28;11.00;99.90
569;DHT22;269;48.884;9.192;2023-03-19T01:21:56;11.00;99.90
569;DHT22;269;48.884;9.192;2023-03-19T01:24:27;11.00;99.90
569;DHT22;269;48.884;9.192;2023-03-19T01:26:54;10.90;99.90
569;DHT22;269;48.884;9.192;2023-03-19T01:29:21;10.90;99.90
569;DHT22;269;48.884;9.192;2023-03-19T01:31:48;10.90;99.90
569;DHT22;269;48.884;9.192;2023-03-19T01:34:17;10.90;99.90
569;DHT22;269;48.884;9.192;2023-03-19T01:36:44;10.70;99.90
569;DHT22;269;48.884;9.192;2023-03-19T01:39:11;10.60;99.90
569;DHT22;269;48.884;9.192;2023-03-19T01:41:38;10.60;99.90
569;DHT22;269;48.884;9.192;2023-03-19T01:44:22;10.60;99.90
569;DHT22;269;48.884;9.192;2023-03-19T01:46:49;10.70;99.90
569;DHT22;269;48.884;9.192;2023-03-19T01:49:18;10.70;99.90
569;DHT22;269;48.884;9.192;2023-03-19T01:51:46;10.80;99.90
569;DHT22;269;48.884;9.192;2023-03-19T01:54:17;10.80;99.90
569;DHT22;269;48.884;9.192;2023-03-19T01:56:47;10.90;99.90
569;DHT22;269;48.884;9.192;2023-03-19T01:59:19;10.90;99.90
569;DHT22;269;48.884;9.192;2023-03-19T02:01:51;11.00;99.90
569;DHT22;269;48.884;9.192;2023-03-19T02:04:23;11.10;99.90
569;DHT22;269;48.884;9.192;2023-03-19T02:06:52;11.20;99.90
569;DHT22;269;48.884;9.192;2023-03-19T02:09:20;11.40;99.90
569;DHT22;269;48.884;9.192;2023-03-19T02:11:49;11.50;99.90
569;DHT22;269;48.884;9.192;2023-03-19T02:14:16;11.60;99.90
569;DHT22;269;48.884;9.192;2023-03-19T02:16:43;11.60;99.90
569;DHT22;269;48.884;9.192;2023-03-19T02:19:15;11.60;99.90
569;DHT22;269;48.884;9.192;2023-03-19T02:21:44;11.40;99.90
569;DHT22;269;48.884;9.192;2023-03-19T02:24:14;11.30;99.90
569;DHT22;269;48.884;9.192;2023-03-19T02:26:45;11.20;99.90
569;DHT22;269;48.884;9.192;2023-03-19T02:29:13;11.20;99.90
569;DHT22;269;48.884;9.192;2023-03-19T02:31:40;11.10;99.90
569;DHT22;269;48.884;9.192;2023-03-19T02:34:32;11.20;99.90
569;DHT22;269;48.884;9.192;2023-03-19T02:37:04;11.50;99.90
569;DHT22;269;48.884;9.192;2023-03-19T02:39:37;11.10;99.90
569;DHT22;269;48.884;9.192;2023-03-19T02:42:08;10.90;99.90
569;DHT22;269;48.884;9.192;2023-03-19T02:44:35;10.70;99.90
569;DHT22;269;48.884;9.192;2023-03-19T02:47:03;10.70;99.90
569;DHT22;269;48.884;9.192;2023-03-19T02:49:30;10.60;99.90
569;DHT22;269;48.884;9.192;2023-03-19T02:51:57;10.60;99.90
569;DHT22;269;48.884;9.192;2023-03-19T02:54:24;10.60;99.90
569;DHT22;269;48.884;9.192;2023-03-19T02:56:52;10.60;99.90
569;DHT22;269;48.884;9.192;2023-03-19T02:59:20;10.60;99.90
569;DHT22;269;48.884;9.192;2023-03-19T03:01:47;10.60;99.90
569;DHT22;269;48.884;9.192;2023-03-19T03:04:15;10.60;99.90
569;DHT22;269;48.884;9.192;2023-03-19T03:06:43;10.60;99.90
569;DHT22;269;48.884;9.192;2023-03-19T03:09:10;10.70;99.90
569;DHT22;269;48.884;9.192;2023-03-19T03:11:38;10.70;99.90
569;DHT22;269;48.884;9.192;2023-03-19T03:14:06;10.80;99.90
569;DHT22;269;48.884;9.192;2023-03-19T03:16:35;10.80;99.90
569;DHT22;269;48.884;9.192;2023-03-19T03:19:03;10.80;99.90
569;DHT22;269;48.884;9.192;2023-03-19T03:21:30;10.80;99.90
569;DHT22;269;48.884;9.192;2023-03-19T03:23:57;10.80;99.90
569;DHT22;269;48.884;9.192;2023-03-19T03:26:24;10.80;99.90
569;DHT22;269;48.884;9.192;2023-03-19T03:28:51;10.90;99.90
569;DHT22;269;48.884;9.192;2023-03-19T03:31:19;10.90;99.90
569;DHT22;269;48.884;9.192;2023-03-19T03:33:47;10.90;99.90
569;DHT22;269;48.884;9.192;2023-03-19T03:36:15;11.00;99.90
569;DHT22;269;48.884;9.192;2023-03-19T03:38:42;11.00;99.90
569;DHT22;269;48.884;9.192;2023-03-19T03:41:10;11.10;99.90
569;DHT22;269;48.884;9.192;2023-03-19T03:43:37;11.20;99.90
569;DHT22;269;48.884;9.192;2023-03-19T03:46:04;11.20;99.90
569;DHT22;269;48.884;9.192;2023-03-19T03:48:32;11.20;99.90
569;DHT22;269;48.884;9.192;2023-03-19T03:51:01;11.10;99.90
569;DHT22;269;48.884;9.192;2023-03-19T03:53:29;11.00;99.90
569;DHT22;269;48.884;9.192;2023-03-19T03:55:56;11.00;99.90
569;DHT22;269;48.884;9.192;2023-03-19T03:58:23;11.00;99.90
569;DHT22;269;48.884;9.192;2023-03-19T04:00:50;10.90;99.90
569;DHT22;269;48.884;9.192;2023-03-19T04:03:19;10.70;99.90
569;DHT22;269;48.884;9.192;2023-03-19T04:05:46;10.70;99.90
569;DHT22;269;48.884;9.192;2023-03-19T04:08:15;10.50;99.90
569;DHT22;269;48.884;9.192;2023-03-19T04:10:43;10.40;99.90
569;DHT22;269;48.884;9.192;2023-03-19T04:13:10;10.40;99.90
569;DHT22;269;48.884;9.192;2023-03-19T04:15:38;10.30;99.90
569;DHT22;269;48.884;9.192;2023-03-19T04:18:05;10.30;99.90
569;DHT22;269;48.884;9.192;2023-03-19T04:20:32;10.20;99.90
569;DHT22;269;48.884;9.192;2023-03-19T04:22:59;10.10;99.90
569;DHT22;269;48.884;9.192;2023-03-19T04:25:28;10.00;99.90
569;DHT22;269;48.884;9.192;2023-03-19T04:27:56;10.00;99.90
569;DHT22;269;48.884;9.192;2023-03-19T04:30:23;9.90;99.90
569;DHT22;269;48.884;9.192;2023-03-19T04:32:50;9.80;99.90
569;DHT22;269;48.884;9.192;2023-03-19T04:35:17;9.80;99.90
569;DHT22;269;48.884;9.192;2023-03-19T04:37:44;9.80;99.90
569;DHT22;269;48.884;9.192;2023-03-19T04:40:13;9.80;99.90
569;DHT22;269;48.884;9.192;2023-03-19T04:42:42;9.80;99.90
569;DHT22;269;48.884;9.192;2023-03-19T04:45:10;9.80;99.90
569;DHT22;269;48.884;9.192;2023-03-19T04:47:37;9.80;99.90
569;DHT22;269;48.884;9.192;2023-03-19T04:50:06;9.80;99.90
569;DHT22;269;48.884;9.192;2023-03-19T04:52:34;9.80;99.90
569;DHT22;269;48.884;9.192;2023-03-19T04:55:02;10.00;99.90
569;DHT22;269;48.884;9.192;2023-03-19T04:57:29;9.80;99.90
569;DHT22;269;48.884;9.192;2023-03-19T04:59:57;9.80;99.90
569;DHT22;269;48.884;9.192;2023-03-19T05:02:25;9.80;99.90
569;DHT22;269;48.884;9.192;2023-03-19T05:04:52;9.80;99.90
569;DHT22;269;48.884;9.192;2023-03-19T05:07:19;9.70;99.90
569;DHT22;269;48.884;9.192;2023-03-19T05:09:46;9.70;99.90
569;DHT22;269;48.884;9.192;2023-03-19T05:12:14;9.70;99.90
569;DHT22;269;48.884;9.192;2023-03-19T05:14:41;9.70;99.90
569;DHT22;269;48.884;9.192;2023-03-19T05:17:10;9.60;99.90
569;DHT22;269;48.884;9.192;2023-03-19T05:19:39;9.60;99.90
569;DHT22;269;48.884;9.192;2023-03-19T05:22:07;9.60;99.90
569;DHT22;269;48.884;9.192;2023-03-19T05:24:34;9.60;99.90
569;DHT22;269;48.884;9.192;2023-03-19T05:27:01;9.60;99.90
569;DHT22;269;48.884;9.192;2023-03-19T05:29:28;9.60;99.90
569;DHT22;269;48.884;9.192;2023-03-19T05:31:55;9.50;99.90
569;DHT22;269;48.884;9.192;2023-03-19T05:34:23;9.50;99.90
569;DHT22;269;48.884;9.192;2023-03-19T05:36:51;9.50;99.90
569;DHT22;269;48.884;9.192;2023-03-19T05:39:19;9.50;99.90
569;DHT22;269;48.884;9.192;2023-03-19T05:41:46;9.50;99.90
569;DHT22;269;48.884;9.192;2023-03-19T05:44:13;9.50;99.90
569;DHT22;269;48.884;9.192;2023-03-19T05:46:40;9.50;99.90
569;DHT22;269;48.884;9.192;2023-03-19T05:49:08;9.50;99.90
569;DHT22;269;48.884;9.192;2023-03-19T05:51:36;9.50;99.90
569;DHT22;269;48.884;9.192;2023-03-19T05:54:03;9.50;99.90
569;DHT22;269;48.884;9.192;2023-03-19T05:56:31;9.50;99.90
569;DHT22;269;48.884;9.192;2023-03-19T05:58:59;9.50;99.90
569;DHT22;269;48.884;9.192;2023-03-19T06:01:26;9.60;99.90
569;DHT22;269;48.884;9.192;2023-03-19T06:03:53;9.60;99.90
569;DHT22;269;48.884;9.192;2023-03-19T06:06:20;9.60;99.90
569;DHT22;269;48.884;9.192;2023-03-19T06:08:48;9.60;99.90
569;DHT22;269;48.884;9.192;2023-03-19T06:11:15;9.60;99.90
569;DHT22;269;48.884;9.192;2023-03-19T06:13:43;9.50;99.90
569;DHT22;269;48.884;9.192;2023-03-19T06:16:11;9.50;99.90
569;DHT22;269;48.884;9.192;2023-03-19T06:18:38;9.60;99.90
569;DHT22;269;48.884;9.192;2023-03-19T06:21:05;9.50;99.90
569;DHT22;269;48.884;9.192;2023-03-19T06:23:32;9.50;99.90
569;DHT22;269;48.884;9.192;2023-03-19T06:26:00;9.50;99.90
569;DHT22;269;48.884;9.192;2023-03-19T06:28:27;9.60;99.90
569;DHT22;269;48.884;9.192;2023-03-19T06:30:55;9.50;99.90
569;DHT22;269;48.884;9.192;2023-03-19T06:33:22;9.50;99.90
569;DHT22;269;48.884;9.192;2023-03-19T06:35:52;9.60;99.90
569;DHT22;269;48.884;9.192;2023-03-19T06:38:19;9.60;99.90
569;DHT22;269;48.884;9.192;2023-03-19T06:40:46;9.70;99.90
569;DHT22;269;48.884;9.192;2023-03-19T06:43:15;9.80;99.90
569;DHT22;269;48.884;9.192;2023-03-19T06:45:42;9.80;99.90
569;DHT22;269;48.884;9.192;2023-03-19T06:48:09;9.80;99.90
569;DHT22;269;48.884;9.192;2023-03-19T06:50:37;9.90;99.90
569;DHT22;269;48.884;9.192;2023-03-19T06:53:04;9.90;99.90
569;DHT22;269;48.884;9.192;2023-03-19T06:55:31;9.90;99.90
569;DHT22;269;48.884;9.192;2023-03-19T06:57:58;9.90;99.90
569;DHT22;269;48.884;9.192;2023-03-19T07:00:26;10.00;99.90
569;DHT22;269;48.884;9.192;2023-03-19T07:02:53;10.00;99.90
569;DHT22;269;48.884;9.192;2023-03-19T07:05:21;10.00;99.90
569;DHT22;269;48.884;9.192;2023-03-19T07:07:47;10.00;99.90
569;DHT22;269;48.884;9.192;2023-03-19T07:10:17;10.00;99.90
569;DHT22;269;48.884;9.192;2023-03-19T07:12:44;10.10;99.90
569;DHT22;269;48.884;9.192;2023-03-19T07:15:11;10.20;99.90
569;DHT22;269;48.884;9.192;2023-03-19T07:17:40;10.20;99.90
569;DHT22;269;48.884;9.192;2023-03-19T07:20:08;10.20;99.90
569;DHT22;269;48.884;9.192;2023-03-19T07:22:35;10.30;99.90
569;DHT22;269;48.884;9.192;2023-03-19T07:25:03;10.30;99.90
569;DHT22;269;48.884;9.192;2023-03-19T07:27:30;10.30;99.90
569;DHT22;269;48.884;9.192;2023-03-19T07:29:57;10.40;99.90
569;DHT22;269;48.884;9.192;2023-03-19T07:32:24;10.40;99.90
569;DHT22;269;48.884;9.192;2023-03-19T07:34:52;10.50;99.90
569;DHT22;269;48.884;9.192;2023-03-19T07:37:19;10.60;99.90
569;DHT22;269;48.884;9.192;2023-03-19T07:39:46;10.70;99.90
569;DHT22;269;48.884;9.192;2023-03-19T07:42:13;10.70;99.90
569;DHT22;269;48.884;9.192;2023-03-19T07:44:40;10.80;99.90
569;DHT22;269;48.884;9.192;2023-03-19T07:47:07;10.80;99.90
569;DHT22;269;48.884;9.192;2023-03-19T07:49:35;10.90;99.90
569;DHT22;269;48.884;9.192;2023-03-19T07:52:04;10.90;99.90
569;DHT22;269;48.884;9.192;2023-03-19T07:54:31;11.00;99.90
569;DHT22;269;48.884;9.192;2023-03-19T07:56:58;11.00;99.90
569;DHT22;269;48.884;9.192;2023-03-19T07:59:25;11.00;99.90
569;DHT22;269;48.884;9.192;2023-03-19T08:01:52;11.00;99.90
569;DHT22;269;48.884;9.192;2023-03-19T08:04:19;11.10;99.90
569;DHT22;269;48.884;9.192;2023-03-19T08:06:47;11.10;99.90
569;DHT22;269;48.884;9.192;2023-03-19T08:09:15;11.20;99.90
569;DHT22;269;48.884;9.192;2023-03-19T08:11:43;11.30;99.90
569;DHT22;269;48.884;9.192;2023-03-19T08:14:10;11.30;99.90
569;DHT22;269;48.884;9.192;2023-03-19T08:16:37;11.40;99.90
569;DHT22;269;48.884;9.192;2023-03-19T08:19:04;11.40;99.90
569;DHT22;269;48.884;9.192;2023-03-19T08:21:31;11.40;99.90
569;DHT22;269;48.884;9.192;2023-03-19T08:23:59;11.50;99.90
569;DHT22;269;48.884;9.192;2023-03-19T08:26:27;11.50;99.90
569;DHT22;269;48.884;9.192;2023-03-19T08:28:54;11.50;99.90
569;DHT22;269;48.884;9.192;2023-03-19T08:31:21;11.40;99.90
569;DHT22;269;48.884;9.192;2023-03-19T08:33:48;11.40;99.90
569;DHT22;269;48.884;9.192;2023-03-19T08:36:15;11.50;99.90
569;DHT22;269;48.884;9.192;2023-03-19T08:38:42;11.60;99.90
569;DHT22;269;48.884;9.192;2023-03-19T08:41:10;11.70;99.90
569;DHT22;269;48.884;9.192;2023-03-19T08:43:38;11.80;99.90
569;DHT22;269;48.884;9.192;2023-03-19T08:46:05;11.80;99.90
569;DHT22;269;48.884;9.192;2023-03-19T08:48:32;11.80;99.90
569;DHT22;269;48.884;9.192;2023-03-19T08:51:01;11.90;99.90
569;DHT22;269;48.884;9.192;2023-03-19T08:53:29;12.00;99.90
569;DHT22;269;48.884;9.192;2023-03-19T08:55:58;12.10;99.90
569;DHT22;269;48.884;9.192;2023-03-19T08:58:26;12.30;99.90
569;DHT22;269;48.884;9.192;2023-03-19T09:00:59;12.60;99.90
569;DHT22;269;48.884;9.192;2023-03-19T09:03:28;12.90;99.90
569;DHT22;269;48.884;9.192;2023-03-19T09:05:57;13.00;99.90
569;DHT22;269;48.884;9.192;2023-03-19T09:08:24;13.30;99.90
569;DHT22;269;48.884;9.192;2023-03-19T09:10:51;13.50;99.90
569;DHT22;269;48.884;9.192;2023-03-19T09:13:18;14.00;99.90
569;DHT22;269;48.884;9.192;2023-03-19T09:15:45;14.30;99.90
569;DHT22;269;48.884;9.192;2023-03-19T09:18:14;14.70;99.90
569;DHT22;269;48.884;9.192;2023-03-19T09:20:41;15.00;99.90
569;DHT22;269;48.884;9.192;2023-03-19T09:23:08;15.40;99.90
569;DHT22;269;48.884;9.192;2023-03-19T09:25:36;15.80;99.90
569;DHT22;269;48.884;9.192;2023-03-19T09:28:03;16.20;99.90
569;DHT22;269;48.884;9.192;2023-03-19T09:30:30;16.40;99.90
569;DHT22;269;48.884;9.192;2023-03-19T09:32:58;16.80;99.90
569;DHT22;269;48.884;9.192;2023-03-19T09:35:26;16.90;99.90
569;DHT22;269;48.884;9.192;2023-03-19T09:37:56;16.80;99.90
569;DHT22;269;48.884;9.192;2023-03-19T09:40:26;16.80;99.90
569;DHT22;269;48.884;9.192;2023-03-19T09:42:59;16.80;99.90
569;DHT22;269;48.884;9.192;2023-03-19T09:45:31;16.90;99.90
569;DHT22;269;48.884;9.192;2023-03-19T09:48:01;17.00;99.90
569;DHT22;269;48.884;9.192;2023-03-19T09:50:33;17.10;99.90
569;DHT22;269;48.884;9.192;2023-03-19T09:53:05;17.20;99.90
569;DHT22;269;48.884;9.192;2023-03-19T09:55:40;17.30;99.90
569;DHT22;269;48.884;9.192;2023-03-19T09:58:12;17.50;99.90
569;DHT22;269;48.884;9.192;2023-03-19T10:00:41;17.50;99.90
569;DHT22;269;48.884;9.192;2023-03-19T10:03:23;17.70;99.90
569;DHT22;269;48.884;9.192;2023-03-19T10:06:02;18.00;99.90
569;DHT22;269;48.884;9.192;2023-03-19T10:08:48;18.20;99.90
569;DHT22;269;48.884;9.192;2023-03-19T10:11:34;18.10;99.90
569;DHT22;269;48.884;9.192;2023-03-19T10:14:14;17.90;99.90
569;DHT22;269;48.884;9.192;2023-03-19T10:16:45;18.10;99.90
569;DHT22;269;48.884;9.192;2023-03-19T10:19:16;18.40;99.90
569;DHT22;269;48.884;9.192;2023-03-19T10:21:48;18.80;99.90
569;DHT22;269;48.884;9.192;2023-03-19T10:24:21;19.30;99.90
569;DHT22;269;48.884;9.192;2023-03-19T10:26:55;19.30;99.90
569;DHT22;269;48.884;9.192;2023-03-19T10:29:23;18.90;99.90
569;DHT22;269;48.884;9.192;2023-03-19T10:31:55;18.70;99.90
569;DHT22;269;48.884;9.192;2023-03-19T10:34:28;18.70;99.90
569;DHT22;269;48.884;9.192;2023-03-19T10:37:01;18.80;99.90
569;DHT22;269;48.884;9.192;2023-03-19T10:39:30;19.10;99.90
569;DHT22;269;48.884;9.192;2023-03-19T10:45:18;19.30;99.90
569;DHT22;269;48.884;9.192;2023-03-19T10:47:46;19.70;99.90
569;DHT22;269;48.884;9.192;2023-03-19T10:50:16;20.10;99.90
569;DHT22;269;48.884;9.192;2023-03-19T10:52:49;20.40;99.90
569;DHT22;269;48.884;9.192;2023-03-19T10:55:23;20.60;99.90
569;DHT22;269;48.884;9.192;2023-03-19T10:57:56;20.90;99.70
569;DHT22;269;48.884;9.192;2023-03-19T11:00:29;21.40;99.90
569;DHT22;269;48.884;9.192;2023-03-19T11:02:58;21.90;98.90
569;DHT22;269;48.884;9.192;2023-03-19T11:05:30;22.20;97.90
569;DHT22;269;48.884;9.192;2023-03-19T11:08:00;22.40;97.30
569;DHT22;269;48.884;9.192;2023-03-19T11:10:30;22.60;96.90
569;DHT22;269;48.884;9.192;2023-03-19T11:13:00;22.70;96.00
569;DHT22;269;48.884;9.192;2023-03-19T11:15:33;22.80;95.40
569;DHT22;269;48.884;9.192;2023-03-19T11:18:06;22.90;94.70
569;DHT22;269;48.884;9.192;2023-03-19T11:20:35;22.50;93.80
569;DHT22;269;48.884;9.192;2023-03-19T11:23:11;22.00;94.40
569;DHT22;269;48.884;9.192;2023-03-19T11:25:41;22.10;93.60
569;DHT22;269;48.884;9.192;2023-03-19T11:28:13;22.00;93.20
569;DHT22;269;48.884;9.192;2023-03-19T11:30:49;22.00;93.20
569;DHT22;269;48.884;9.192;2023-03-19T11:36:23;22.20;92.10
569;DHT22;269;48.884;9.192;2023-03-19T11:39:11;21.90;90.20
569;DHT22;269;48.884;9.192;2023-03-19T11:41:52;21.30;90.00
569;DHT22;269;48.884;9.192;2023-03-19T11:44:27;20.70;91.10
569;DHT22;269;48.884;9.192;2023-03-19T11:47:01;20.40;91.50
569;DHT22;269;48.884;9.192;2023-03-19T11:49:47;20.00;91.30
569;DHT22;269;48.884;9.192;2023-03-19T11:52:23;19.90;91.40
569;DHT22;269;48.884;9.192;2023-03-19T11:55:04;20.20;92.10
569;DHT22;269;48.884;9.192;2023-03-19T11:57:51;20.80;92.30
569;DHT22;269;48.884;9.192;2023-03-19T12:00:28;21.40;91.20
569;DHT22;269;48.884;9.192;2023-03-19T12:06:23;21.60;89.90
569;DHT22;269;48.884;9.192;2023-03-19T12:08:57;21.10;88.20
569;DHT22;269;48.884;9.192;2023-03-19T12:11:30;20.80;89.40
569;DHT22;269;48.884;9.192;2023-03-19T12:14:18;20.70;90.00
569;DHT22;269;48.884;9.192;2023-03-19T12:16:58;20.70;90.20
569;DHT22;269;48.884;9.192;2023-03-19T12:19:46;20.70;88.90
569;DHT22;269;48.884;9.192;2023-03-19T12:22:24;20.50;89.90
569;DHT22;269;48.884;9.192;2023-03-19T12:25:20;20.20;89.80
569;DHT22;269;48.884;9.192;2023-03-19T12:27:54;20.30;90.30
569;DHT22;269;48.884;9.192;2023-03-19T12:30:31;20.10;90.60
569;DHT22;269;48.884;9.192;2023-03-19T12:33:09;19.80;90.80
569;DHT22;269;48.884;9.192;2023-03-19T12:35:38;19.30;91.60
569;DHT22;269;48.884;9.192;2023-03-19T12:38:11;19.20;91.20
569;DHT22;269;48.884;9.192;2023-03-19T12:40:44;19.20;91.70
569;DHT22;269;48.884;9.192;2023-03-19T12:43:17;19.30;91.70
569;DHT22;269;48.884;9.192;2023-03-19T12:45:46;19.40;91.50
569;DHT22;269;48.884;9.192;2023-03-19T12:48:20;19.40;92.00
569;DHT22;269;48.884;9.192;2023-03-19T12:50:51;19.30;92.60
569;DHT22;269;48.884;9.192;2023-03-19T12:53:30;18.80;93.80
569;DHT22;269;48.884;9.192;2023-03-19T12:56:05;18.40;95.00
569;DHT22;269;48.884;9.192;2023-03-19T12:58:45;18.00;95.60
569;DHT22;269;48.884;9.192;2023-03-19T13:01:19;17.90;96.20
569;DHT22;269;48.884;9.192;2023-03-19T13:03:53;17.50;96.60
569;DHT22;269;48.884;9.192;2023-03-19T13:06:24;17.30;97.30
569;DHT22;269;48.884;9.192;2023-03-19T13:08:57;17.00;97.50
569;DHT22;269;48.884;9.192;2023-03-19T13:11:34;16.80;97.80
569;DHT22;269;48.884;9.192;2023-03-19T13:14:11;16.60;98.50
569;DHT22;269;48.884;9.192;2023-03-19T13:16:44;16.40;99.10
569;DHT22;269;48.884;9.192;2023-03-19T13:19:17;16.20;99.90
569;DHT22;269;48.884;9.192;2023-03-19T13:21:48;16.00;99.90
569;DHT22;269;48.884;9.192;2023-03-19T13:24:21;15.70;99.90
569;DHT22;269;48.884;9.192;2023-03-19T13:26:52;15.50;99.90
569;DHT22;269;48.884;9.192;2023-03-19T13:29:23;15.30;99.90
569;DHT22;269;48.884;9.192;2023-03-19T13:31:51;15.20;99.90
569;DHT22;269;48.884;9.192;2023-03-19T13:34:23;15.10;99.90
569;DHT22;269;48.884;9.192;2023-03-19T13:36:54;14.90;99.90
569;DHT22;269;48.884;9.192;2023-03-19T13:39:28;14.70;99.90
569;DHT22;269;48.884;9.192;2023-03-19T13:42:09;14.50;99.90
569;DHT22;269;48.884;9.192;2023-03-19T13:44:48;14.40;99.90
569;DHT22;269;48.884;9.192;2023-03-19T13:47:37;14.30;99.90
569;DHT22;269;48.884;9.192;2023-03-19T13:50:29;14.40;99.90
569;DHT22;269;48.884;9.192;2023-03-19T13:56:03;14.60;99.90
569;DHT22;269;48.884;9.192;2023-03-19T13:58:45;14.80;99.90
569;DHT22;269;48.884;9.192;2023-03-19T14:01:38;14.90;99.90
569;DHT22;269;48.884;9.192;2023-03-19T14:04:19;15.00;99.90
569;DHT22;269;48.884;9.192;2023-03-19T14:06:49;15.20;99.90
569;DHT22;269;48.884;9.192;2023-03-19T14:09:31;15.30;99.90
569;DHT22;269;48.884;9.192;2023-03-19T14:12:22;15.50;99.90
569;DHT22;269;48.884;9.192;2023-03-19T14:14:54;15.60;99.90
569;DHT22;269;48.884;9.192;2023-03-19T14:17:24;15.70;99.90
569;DHT22;269;48.884;9.192;2023-03-19T14:19:53;15.70;99.90
569;DHT22;269;48.884;9.192;2023-03-19T14:22:37;15.80;99.90
569;DHT22;269;48.884;9.192;2023-03-19T14:25:15;15.90;99.90
569;DHT22;269;48.884;9.192;2023-03-19T14:27:45;16.00;99.90
569;DHT22;269;48.884;9.192;2023-03-19T14:30:23;16.10;99.90
569;DHT22;269;48.884;9.192;2023-03-19T14:32:54;16.30;99.90
569;DHT22;269;48.884;9.192;2023-03-19T14:35:24;16.70;99.90
569;DHT22;269;48.884;9.192;2023-03-19T14:37:53;17.20;99.90
569;DHT22;269;48.884;9.192;2023-03-19T14:40:22;17.80;99.90
569;DHT22;269;48.884;9.192;2023-03-19T14:42:59;18.50;99.90
569;DHT22;269;48.884;9.192;2023-03-19T14:45:38;19.10;99.90
569;DHT22;269;48.884;9.192;2023-03-19T14:48:31;19.10;99.90
569;DHT22;269;48.884;9.192;2023-03-19T14:54:23;18.40;99.90
569;DHT22;269;48.884;9.192;2023-03-19T14:56:51;18.00;99.90
569;DHT22;269;48.884;9.192;2023-03-19T14:59:18;17.80;99.90
569;DHT22;269;48.884;9.192;2023-03-19T15:01:49;17.50;99.90
569;DHT22;269;48.884;9.192;2023-03-19T15:04:20;17.10;99.90
569;DHT22;269;48.884;9.192;2023-03-19T15:06:51;16.80;99.90
569;DHT22;269;48.884;9.192;2023-03-19T15:09:22;16.60;99.90
569;DHT22;269;48.884;9.192;2023-03-19T15:12:12;16.30;99.90
569;DHT22;269;48.884;9.192;2023-03-19T15:14:57;16.10;99.90
569;DHT22;269;48.884;9.192;2023-03-19T15:17:29;16.00;99.90
569;DHT22;269;48.884;9.192;2023-03-19T15:19:59;16.00;99.90
569;DHT22;269;48.884;9.192;2023-03-19T15:22:29;15.90;99.90
569;DHT22;269;48.884;9.192;2023-03-19T15:25:04;15.90;99.90
569;DHT22;269;48.884;9.192;2023-03-19T15:27:33;15.80;99.90
569;DHT22;269;48.884;9.192;2023-03-19T15:30:00;15.90;99.90
569;DHT22;269;48.884;9.192;2023-03-19T15:32:32;15.90;99.90
569;DHT22;269;48.884;9.192;2023-03-19T15:35:01;15.90;99.90
569;DHT22;269;48.884;9.192;2023-03-19T15:37:31;15.90;99.90
569;DHT22;269;48.884;9.192;2023-03-19T15:40:02;15.90;99.90
569;DHT22;269;48.884;9.192;2023-03-19T15:42:31;15.80;99.90
569;DHT22;269;48.884;9.192;2023-03-19T15:45:01;15.80;99.90
569;DHT22;269;48.884;9.192;2023-03-19T15:47:32;15.80;99.90
569;DHT22;269;48.884;9.192;2023-03-19T15:50:06;15.70;99.90
569;DHT22;269;48.884;9.192;2023-03-19T15:52:38;15.70;99.90
569;DHT22;269;48.884;9.192;2023-03-19T15:55:06;15.50;99.90
569;DHT22;269;48.884;9.192;2023-03-19T15:57:34;15.30;99.90
569;DHT22;269;48.884;9.192;2023-03-19T16:00:03;15.20;99.90
569;DHT22;269;48.884;9.192;2023-03-19T16:02:31;15.10;99.90
569;DHT22;269;48.884;9.192;2023-03-19T16:05:01;15.00;99.90
569;DHT22;269;48.884;9.192;2023-03-19T16:07:39;14.80;99.90
569;DHT22;269;48.884;9.192;2023-03-19T16:10:36;14.80;99.90
569;DHT22;269;48.884;9.192;2023-03-19T16:13:21;14.70;99.90
569;DHT22;269;48.884;9.192;2023-03-19T16:15:53;14.60;99.90
569;DHT22;269;48.884;9.192;2023-03-19T16:18:23;14.50;99.90
569;DHT22;269;48.884;9.192;2023-03-19T16:21:05;14.40;99.90
569;DHT22;269;48.884;9.192;2023-03-19T16:23:35;14.30;99.90
569;DHT22;269;48.884;9.192;2023-03-19T16:26:06;14.20;99.90
569;DHT22;269;48.884;9.192;2023-03-19T16:28:41;14.00;99.90
569;DHT22;269;48.884;9.192;2023-03-19T16:31:23;13.80;99.90
569;DHT22;269;48.884;9.192;2023-03-19T16:33:51;13.50;99.90
569;DHT22;269;48.884;9.192;2023-03-19T16:36:21;13.30;99.90
569;DHT22;269;48.884;9.192;2023-03-19T16:38:53;13.00;99.90
569;DHT22;269;48.884;9.192;2023-03-19T16:41:29;12.80;99.90
569;DHT22;269;48.884;9.192;2023-03-19T16:44:11;12.60;99.90
569;DHT22;269;48.884;9.192;2023-03-19T16:46:39;12.50;99.90
569;DHT22;269;48.884;9.192;2023-03-19T16:49:06;12.50;99.90
569;DHT22;269;48.884;9.192;2023-03-19T16:51:35;12.30;99.90
569;DHT22;269;48.884;9.192;2023-03-19T16:54:03;12.20;99.90
569;DHT22;269;48.884;9.192;2023-03-19T16:56:30;12.10;99.90
569;DHT22;269;48.884;9.192;2023-03-19T16:59:00;12.00;99.90
569;DHT22;269;48.884;9.192;2023-03-19T17:01:28;12.00;99.90
569;DHT22;269;48.884;9.192;2023-03-19T17:03:56;12.00;99.90
569;DHT22;269;48.884;9.192;2023-03-19T17:06:23;11.90;99.90
569;DHT22;269;48.884;9.192;2023-03-19T17:08:55;11.90;99.90
569;DHT22;269;48.884;9.192;2023-03-19T17:11:27;11.90;99.90
569;DHT22;269;48.884;9.192;2023-03-19T17:13:57;11.80;99.90